Choose a state:
Most recent flow and stage for Minnesota
(Stations highlighted in red are currently above flood stage)
USGS
station
ID
USGS station name NWS
flood
stage
(ft)
Most recent
stage
(ft)
Most recent
flow
(cfs)
Historical
peaks
(cfs)
Most recent
local
date/time
NWS
station
ID
04010500 PIGEON RIVER AT MIDDLE FALLS NR GRAND PORTAGE MN   7.82 2,600 11,000 2019-10-22 16:30:00 GDPM5
04015330 KNIFE RIVER NEAR TWO HARBORS, MN   29.14 1,270 25,500 2019-10-22 16:15:00 KNIM5
04015438 ST. LOUIS RIVER NEAR SKIBO, MN   18.96 249 813 2019-10-22 16:45:00  
04021520 STONEY BROOK AT PINE DRIVE NEAR BROOKSTON, MN   6.35 Bkw 552 2019-10-22 16:00:00  
04024000 ST. LOUIS RIVER AT SCANLON, MN 10.5 7.57 9,650 45,300 2019-10-22 16:30:00 SCNM5
05030500 OTTER TAIL RIVER NEAR ELIZABETH, MN   8.08 795 1,360 2019-10-22 16:30:00 ELZM5
05046000 OTTER TAIL RIVER BL ORWELL D NR FERGUS FALLS, MN   4.15 1,200 2,380 2019-10-22 16:30:00  
05046475 OTTER TAIL RIVER DIVERSION AT BRECKENRIDGE, MN   8.67 99.1 5,400 2019-10-22 16:00:00 BTWM5
05049000 MUSTINKA RIVER ABOVE WHEATON, MN   84.50

 

11,000 2019-10-22 16:30:00 WEAM5
05049995 MUD LAKE ABOVE WHITE ROCK DAM NEAR WHITE ROCK, SD   72.82

 

  2019-10-22 16:30:00  
05050000 BOIS DE SIOUX RIVER NEAR WHITE ROCK, SD 80 9.39 1,120 8,750 2019-10-22 16:30:00 WHRM5
05051300 BOIS DE SIOUX RIVER NEAR DORAN, MN   16.13 2,050 12,300 2019-10-22 16:30:00 DORM5
05061000 BUFFALO RIVER NEAR HAWLEY, MN 8 6.55 518 3,000 2019-10-22 16:45:00 HWYM5
05061500 SOUTH BRANCH BUFFALO RIVER AT SABIN, MN 13 10.07 462 8,500 2019-10-22 16:45:00 SABM5
05062000 BUFFALO RIVER NEAR DILWORTH, MN 13 13.74 1,430 13,600 2019-10-22 16:45:00 DILM5
05062500 WILD RICE RIVER AT TWIN VALLEY, MN 10 4.70 872 20,300 2019-10-22 16:45:00 TWVM5
05063398 S. BR. WILD RICE RIVER AT CO. RD. 27 NR FELTON, MN   6.28 211 5,490 2019-10-22 16:45:00  
05064000 WILD RICE RIVER AT HENDRUM, MN 20 17.13 1,460 10,600 2019-10-22 16:30:00 HNDM5
05067500 MARSH RIVER NEAR SHELLY, MN 14 7.09 177 6,390 2019-10-22 16:30:00 SHYM5
05069000 SAND HILL RIVER AT CLIMAX, MN 20 11.70 8.49 4,800 2019-10-22 16:45:00 CLXM5
05073500 UPPER RED LAKE AT WASKISH, MN   75.63

 

  2019-10-22 16:30:00 WSKM5
05074000 LOWER RED LAKE NR RED LAKE, MN   75.12

 

  2019-10-22 16:30:00 RRDM5
05074500 RED LAKE RIVER NEAR RED LAKE, MN   69.40 56.8 3,600 2019-10-22 16:30:00  
05075000 RED LAKE RIVER AT HIGH LANDING NR GOODRIDGE, MN 12 5.40 367 4,060 2019-10-22 16:00:00 HIGM5
05076000 THIEF RIVER NEAR THIEF RIVER FALLS, MN   11.64 2,320 5,610 2019-10-22 16:15:00  
05078000 CLEARWATER RIVER AT PLUMMER, MN   4.81 460 3,940 2019-10-22 16:15:00 PLUM5
05078230 LOST RIVER AT OKLEE, MN   6.08 206 3,210 2019-10-22 16:30:00 OKLM5
05078500 CLEARWATER RIVER AT RED LAKE FALLS, MN   7.90 1,160 12,400 2019-10-22 16:45:00 RDLM5
05079000 RED LAKE RIVER AT CROOKSTON, MN 15 10.73 4,650 28,400 2019-10-22 16:45:00 CRKM5
05080000 RED LAKE RIVER AT FISHER, MN   23.97 6,620 26,400 2019-10-22 16:30:00 FSHM5
05083500 RED RIVER OF THE NORTH AT OSLO, MN 26 35.79

 

120,000 2019-10-22 16:15:00 OSLM5
05085450 SNAKE RIVER ABOVE WARREN, MN 67 63.84 221 1,880 2019-10-22 16:45:00 MKLM5
05087500 MIDDLE RIVER AT ARGYLE, MN   7.49 333 5,020 2019-10-22 16:00:00 AGYM5
05094000 SOUTH BRANCH TWO RIVERS AT LAKE BRONSON, MN   8.17 1,230 5,410 2019-10-22 16:15:00 OSLM5
05104500 ROSEAU RIVER BELOW SOUTH FORK NEAR MALUNG, MN   9.67 1,110 16,000 2019-10-22 16:30:00 MALM5
05106000 SPRAGUE CREEK NEAR SPRAGUE, MANITOBA, CANADA   8.23 487 8,440 2019-10-22 16:30:00  
05107500 ROSEAU RIVER AT ROSS, MN   16.89 4,260 10,500 2019-10-22 16:30:00 RSSM5
05112000 ROSEAU RIVER BELOW STATE DITCH 51 NR CARIBOU, MN   10.39 3,190 4,320 2019-10-22 16:30:00 CARM5
05124480 KAWISHIWI RIVER NEAR ELY, MN   3.82 222 1,870 2019-10-22 16:15:00 KAWM5
05125000 SOUTH KAWISHIWI RIVER NEAR ELY, MN   3.49 603 5,130 2019-10-22 16:30:00  
05126210 SOUTH KAWISHIWI R ABV WHITE IRON LAKE NR ELY, MN   5.70 1,260 8,080 2019-10-22 16:30:00  
05127500 BASSWOOD RIVER NEAR WINTON, MN   3.95 1,700 15,600 2019-10-14 05:30:00 WTNM5
05129115 VERMILION RIVER NR CRANE LAKE, MN   9.16 1,130 4,600 2019-10-22 16:30:00 CLKM5
05129290 GOLD PORTAGE OUTLET FROM KABETOGAMA LK NR RAY,MN   16.02 255 1,400 2019-10-22 16:30:00  
05129515 RAINY R AT BOAT LANDING BLW INTERNATIONAL FALLS,MN   24.98 25,500 45,800 2019-10-22 16:30:00  
05131500 LITTLE FORK RIVER AT LITTLEFORK, MN   5.28 1,980 25,000 2019-10-22 16:30:00 LFKM5
05132000 BIG FORK RIVER AT BIG FALLS, MN   5.94 2,290 14,800 2019-10-22 16:30:00 BIFM5
05133500 RAINY RIVER AT MANITOU RAPIDS, MN   12.99 34,100 76,100 2019-10-22 16:30:00 MNUM5
05134200 RAPID RIVER NEAR BAUDETTE, MN   9.08 1,970 7,580 2019-10-22 16:15:00  
05137500 RAINY RIVER NEAR BOAT LANDING AT WHEELERS POINT,MN   7.93

 

99,100 2019-10-22 16:00:00 WHPM5
05140520 LAKE OF THE WOODS AT WARROAD, MN   61.14

 

2019-10-22 16:30:00 WRDM5
05140521 LK OF THE WOODS @ SPRINGSTEEL IS NR. WARROAD, MN   61.05

 

  2019-10-22 16:00:00 SSIM5
05200510 MISSISSIPPI RIVER NEAR BEMIDJI, MN   4.47 713 1,820 2019-10-22 16:30:00 BEMM5
05205900 LEECH LAKE AT SUGAR POINT NEAR FEDERAL DAM, MN   95.41

 

  2019-10-22 16:30:00  
05207600 MISSISSIPPI RIVER AT WILLOW BEACH AT BALL CLUB, MN   10.41 2,560 2,720 2019-10-22 16:15:00  
05210000 MISSISSIPPI R. AT DAYS HIGH LANDING NR DEER RIVER   76.07

 

  2019-10-22 16:30:00  
05211000 MISSISSIPPI RIVER AT GRAND RAPIDS, MN   7.96 2,670 12,500 2019-10-22 16:00:00 GNDM5
05212700 PRAIRIE RIVER NEAR TACONITE, MN 10 6.04 542 3,260 2019-10-22 16:45:00 TACM5
05227500 MISSISSIPPI RIVER AT AITKIN, MN 13 12.08 7,380 20,000 2019-10-22 16:30:00 ATKM5
05227530 MISSISSIPPI RIVER DIVERSION NEAR AITKIN, MN   11.79 3,100 4,330 2019-10-22 16:00:00  
05242300 MISSISSIPPI RIVER AT BRAINERD, MN   11.06 8,560 17,900 2019-10-22 16:30:00 BRAM5
05243725 STRAIGHT RIVER NEAR PARK RAPIDS, MN   1.78 97.0 182 2019-10-22 16:30:00 PRKM5
05244000 CROW WING RIVER AT NIMROD, MN   4.29 1,260 3,700 2019-10-22 16:00:00 NIMM5
05245100 LONG PRAIRIE RIVER AT LONG PRAIRIE, MN 7 5.61 654 3,270 2019-10-22 16:15:00 LGPM5
05247500 CROW WING RIVER NEAR PILLAGER, MN   6.57 5,590 18,300 2019-10-22 16:45:00 PLGM5
05267000 MISSISSIPPI RIVER NEAR ROYALTON, MN   13.28 16,100 38,200 2019-10-22 16:15:00 BLHM5
05270500 SAUK RIVER NEAR ST. CLOUD, MN 6 4.71 1,600 9,100 2019-10-22 16:15:00 STCM5
05270700 MISSISSIPPI RIVER AT ST. CLOUD, MN 9 7.44 17,800 46,900 2019-10-22 16:45:00 SCOM5
05275000 ELK RIVER NEAR BIG LAKE, MN   3.47 838 7,360 2019-10-22 16:15:00 ERVM5
05280000 CROW RIVER AT ROCKFORD, MN 10 7.85 4,530 22,400 2019-10-22 16:15:00 RKFM5
05283500 MISSISSIPPI RIVER AT US HWY 169 AT CHAMPLIN, MN 12 8.13 23,900 49,100 2019-10-22 16:30:00 AKAM5
05284000 MILLE LACS LAKE AT COVE BAY NEAR ONAMIA, MN   12.37

 

2019-10-22 15:15:00  
05286000 RUM RIVER NEAR ST. FRANCIS, MN   5.42 2,620 10,100 2019-10-22 16:30:00 STFM5
05287890 ELM CREEK NR CHAMPLIN, MN   7.21 182 1,220 2019-10-22 16:00:00  
05288500 MISSISSIPPI RIVER AT HWY 610 IN BROOKLYN PARK, MN   8.81 27,400 91,000 2019-10-22 16:00:00 ANKM5
05288580 RICE CREEK BLW OLD HWY. 8 IN MOUNDS VIEW, MN   9.99 223 445 2019-10-22 16:45:00  
05288670 MISSISSIPPI RIVER ABV 37TH AVE. NE IN FRIDLEY, MN   93.78

 

  2019-10-22 16:30:00  
05288705 SHINGLE CREEK AT QUEEN AVE IN MINNEAPOLIS, MN   10.03 64.1 301 2019-10-22 16:00:00  
05289000 LAKE MINNETONKA ABV GRAYS BAY OTLT IN MINNETONKA   929.46

 

  2019-10-22 16:30:00  
05289800 MINNEHAHA CREEK AT HIAWATHA AVE. IN MINNEAPOLIS,MN   15.00 316 871 2019-10-22 16:00:00 MHAM5
05290000 LITTLE MINNESOTA RIVER NEAR PEEVER, SD 17 16.15 1,470 8,900 2019-10-22 16:45:00 PVRS2
05291000 WHETSTONE RIVER NEAR BIG STONE CITY, SD 12 6.23 1,130 29,000 2019-10-22 16:45:00 BGCS2
05292000 MINNESOTA RIVER AT ORTONVILLE, MN 10 8.15 2,500 5,680 2019-10-22 16:30:00 ORTM5
05293000 YELLOW BANK RIVER NEAR ODESSA, MN   4.83 545 6,970 2019-10-22 16:30:00  
05294000 POMME DE TERRE RIVER AT APPLETON, MN   7.27 813 8,890 2019-10-22 16:45:00 APPM5
05300000 LAC QUI PARLE RIVER NEAR LAC QUI PARLE, MN   9.21 1,120 17,100 2019-10-22 16:45:00 LQPM5
05301000 MINNESOTA RIVER NEAR LAC QUI PARLE, MN   32.66 4,740 43,000 2019-10-22 16:00:00  
05304500 CHIPPEWA RIVER NEAR MILAN, MN   6.25 3,020 14,400 2019-10-22 16:45:00 MLNM5
05304995 CHIPPEWA R. (HW) ABOVE COUNTY RD 13 NR WATSON, MN   43.02

 

  2019-10-22 16:00:00  
05305000 CHIPPEWA RIVER (TW) NEAR WATSON, MN   41.89 1,230 9,700 2019-10-22 16:00:00  
05311000 MINNESOTA RIVER AT MONTEVIDEO, MN 14 14.12 5,880 47,500 2019-10-22 16:00:00 MVOM5
05311150 MINNESOTA RIVER AT HWY 212 IN GRANITE FALLS, MN 888.5 883.78 5,460 15,300 2019-10-22 16:15:00 GTEM5
05313500 YELLOW MEDICINE RIVER NEAR GRANITE FALLS, MN   7.61 1,230 17,200 2019-10-22 16:45:00 GRNM5
05315000 REDWOOD RIVER NEAR MARSHALL, MN 14 10.38 526 6,380 2019-10-22 16:45:00 MMLM5
05316500 REDWOOD RIVER NEAR REDWOOD FALLS, MN 6 5.43 1,420 19,700 2019-10-22 16:30:00 RWDM5
05316580 MINNESOTA RIVER AT MORTON, MN 21 21.82 10,500 45,400 2019-10-22 16:30:00 MTNM5
05316770 MINNESOTA RIVER AT NEW ULM, MN 800 794.95 8,040 58,000 2019-10-22 16:45:00 NULM5
05317000 COTTONWOOD RIVER NEAR NEW ULM, MN 11 8.79 2,500 28,700 2019-10-22 16:00:00 NWUM5
05317200 LITTLE COTTONWOOD RIVER NEAR COURTLAND, MN   5.75 392 6,060 2019-10-22 16:15:00  
05319500 WATONWAN RIVER NEAR GARDEN CITY, MN   4.18 1,440 19,000 2019-10-22 16:30:00 GRDM5
05320000 BLUE EARTH RIVER NEAR RAPIDAN, MN   5.35 3,690 43,100 2019-10-22 16:45:00 RAPM5
05320500 LE SUEUR RIVER NEAR RAPIDAN, MN   5.73 2,700 30,500 2019-10-22 16:00:00 RPDM5
05325000 MINNESOTA RIVER AT MANKATO, MN 22 12.70 16,300 94,100 2019-10-22 16:30:00 MNKM5
05327000 HIGH ISLAND CREEK NEAR HENDERSON, MN   6.92 554 3,710 2019-10-22 16:30:00 HICM5
05330000 MINNESOTA RIVER NEAR JORDAN, MN 25 19.37 16,700 117,000 2019-10-22 16:45:00 JDNM5
05330920 MINNESOTA RIVER AT FORT SNELLING STATE PARK, MN   688.03

 

77,200 2019-09-10 11:00:00 FSNM5
05331000 MISSISSIPPI RIVER AT ST. PAUL, MN 14 9.70 47,900 171,000 2019-10-22 16:00:00 STPM5
05331580 MISSISSIPPI RIVER BELOW L&D #2 AT HASTINGS, MN   14.44 46,400 147,000 2019-10-22 16:45:00  
05336700 KETTLE RIVER BELOW SANDSTONE, MN   8.62 5,250 24,800 2019-10-22 16:45:00 SANM5
05338500 SNAKE RIVER NEAR PINE CITY, MN 9 5.28 2,440 14,300 2019-10-22 16:15:00 PNCM5
05341550 ST. CROIX RIVER AT STILLWATER, MN 687.00 682.65 9,410 54,200 2019-10-22 16:15:00 STLM5
05344490 ST. CROIX RIVER AT PRESCOTT, WI   32.22 19,400 43,300 2019-10-22 16:15:00 PSCW3
05344500 MISSISSIPPI RIVER AT PRESCOTT, WI   32.23 63,600 228,000 2019-10-22 16:15:00 PREW3
05345000 VERMILLION RIVER NEAR EMPIRE, MN   5.09 301 6,570 2019-10-22 16:15:00 EMPM5
05353800 STRAIGHT RIVER NEAR FARIBAULT, MN   6.48 1,350 12,200 2019-10-22 16:15:00 FRBM5
05354500 CANNON RIVER AT CO. HWY. 29 BELOW FARIBAULT, MN   14.51 1,860 11,600 2019-10-22 16:15:00  
05355024 CANNON RIVER AT NORTHFIELD MN 897 893.12 1,980 16,600 2019-10-22 16:30:00 NRFM5
05355038 CHUB CREEK AT CO. HWY. 47 ABOVE RANDOLPH, MN   6.84

 

600 2019-10-22 16:30:00  
05355080 PRAIRIE CREEK NEAR CANNON FALLS, MN   13.14

 

2,200 2019-10-22 16:15:00  
05355092 CANNON RIVER AT 9TH ST. BRIDGE IN CANNON FALLS, MN   10.73 2,610 12,200 2019-10-22 16:50:00  
05355200 CANNON RIVER AT WELCH, MN   6.53 2,560 36,100 2019-10-22 16:15:00 WLCM5
05355235 MISSISSIPPI RIVER ABV RED WING BLW DIAMOND ISL, MN   11.04

 

  2019-10-22 15:45:00  
05355250 MISSISSIPPI RIVER AT RED WING, MN 14 10.00 60,100 163,000 2019-10-22 16:15:00 REDM5
05372995 SOUTH FORK ZUMBRO RIVER AT ROCHESTER, MN 14 5.27 1,080 30,500 2019-10-22 16:15:00 RCHM5
05374000 ZUMBRO RIVER AT ZUMBRO FALLS, MN 18 9.27

 

53,000 2019-10-22 16:30:00 ZUMM5
05374900 ZUMBRO RIVER AT KELLOGG, MN   5.91

 

22,300 2019-10-22 16:00:00  
05378490 MISSISSIPPI RIVER AT LOCK AND DAM 5A NR WINONA, MN   12.37

 

  2019-10-22 16:15:00  
05378500 MISSISSIPPI RIVER AT WINONA, MN 13 11.09 94,000 268,000 2019-10-22 16:45:00 WNAM5
05383950 ROOT RIVER NEAR PILOT MOUND, MN 19 10.61 1,780 21,900 2019-10-22 16:00:00 RPMM5
05384350 ROOT RIVER ABOVE RUSHFORD, MN 21 11.74

 

32,400 2019-10-22 16:00:00 RSFM5
05385000 ROOT RIVER NEAR HOUSTON, MN 15 6.78 2,710 46,000 2019-10-22 16:45:00 HOUM5
05385500 SOUTH FORK ROOT RIVER NEAR HOUSTON, MN   3.43 604 13,800 2019-10-22 16:30:00  
05386400 MISSISSIPPI RIVER AT BROWNSVILLE, MN   33.43

 

  2019-10-22 16:45:00  
05387030 CROOKED CREEK AT FREEBURG MN   7.15

 

7,060 2019-10-06 23:30:00  
05457000 CEDAR RIVER NEAR AUSTIN, MN   6.85 1,900 20,000 2019-10-22 16:00:00  
05475350 DES MOINES RIVER ABOVE WINDOM, MN 19 15.44

 

  2019-10-22 16:00:00 WDOM5
05476000 DES MOINES RIVER AT JACKSON, MN 12 9.89 2,020 15,700 2019-10-22 16:30:00 JCKM5
443929092412001 North Lake, SW side, lower end, Pr. Is., MN (SW09)   676.94

 

  2019-07-18 09:00:00  
464646092052900 SUPERIOR BAY DULUTH SHIP CANAL AT DULUTH, MN  

 

1,240   2019-10-22 16:55:00